createdAt,value
2022-09-23T00:01:40.093Z,10.25
2022-09-23T00:04:06.752Z,10.18
2022-09-23T00:06:33.436Z,10.13
2022-09-23T00:09:00.026Z,10.19
2022-09-23T00:11:28.318Z,10.18
2022-09-23T00:13:57.172Z,10.13
2022-09-23T00:16:29.357Z,10.05
2022-09-23T00:18:55.974Z,10.13
2022-09-23T00:21:23.305Z,10.15
2022-09-23T00:23:50.219Z,10.08
2022-09-23T00:26:19.154Z,10.08
2022-09-23T00:28:46.051Z,10.03
2022-09-23T00:31:15.502Z,10.05
2022-09-23T00:33:42.160Z,10.16
2022-09-23T00:36:12.743Z,10.01
2022-09-23T00:38:39.418Z,9.99
2022-09-23T00:41:06.573Z,10.06
2022-09-23T00:44:01.104Z,9.90
2022-09-23T00:46:30.081Z,9.98
2022-09-23T00:49:22.779Z,9.92
2022-09-23T00:51:55.265Z,9.85
2022-09-23T00:54:24.572Z,9.82
2022-09-23T00:56:51.609Z,9.99
2022-09-23T00:59:18.266Z,9.82
2022-09-23T01:01:46.243Z,9.85
2022-09-23T01:04:13.041Z,9.71
2022-09-23T01:06:39.690Z,9.80
2022-09-23T01:09:06.491Z,9.74
2022-09-23T01:11:57.501Z,9.74
2022-09-23T01:14:50.020Z,9.70
2022-09-23T01:17:24.556Z,9.70
2022-09-23T01:19:51.151Z,9.75
2022-09-23T01:22:56.411Z,9.88
2022-09-23T01:26:00.225Z,9.84
2022-09-23T01:28:38.253Z,9.73
2022-09-23T01:31:14.624Z,9.82
2022-09-23T01:33:54.504Z,9.75
2022-09-23T01:36:39.460Z,9.74
2022-09-23T01:39:15.547Z,9.70
2022-09-23T01:41:51.795Z,9.81
2022-09-23T01:44:21.483Z,9.71
2022-09-23T01:46:52.238Z,9.75
2022-09-23T01:49:37.426Z,9.69
2022-09-23T01:52:18.394Z,9.61
2022-09-23T01:54:55.096Z,9.58
2022-09-23T01:57:33.764Z,9.53
2022-09-23T02:00:23.111Z,9.47
2022-09-23T02:02:57.768Z,9.44
2022-09-23T02:05:37.102Z,9.39
2022-09-23T02:08:11.925Z,9.26
2022-09-23T02:10:44.910Z,9.37
2022-09-23T02:13:20.865Z,9.24
2022-09-23T02:15:53.083Z,9.26
2022-09-23T02:18:26.868Z,9.30
2022-09-23T02:21:02.861Z,9.30
2022-09-23T02:23:43.107Z,9.24
2022-09-23T02:26:27.797Z,9.27
2022-09-23T02:29:04.630Z,9.41
2022-09-23T02:32:06.475Z,9.24
2022-09-23T02:34:58.489Z,9.26
2022-09-23T02:37:39.891Z,9.26
2022-09-23T02:40:12.666Z,9.20
2022-09-23T02:42:45.124Z,9.20
2022-09-23T02:45:11.851Z,9.18
2022-09-23T02:47:42.074Z,9.15
2022-09-23T02:50:09.572Z,9.22
2022-09-23T02:52:39.358Z,9.23
2022-09-23T02:55:12.104Z,9.27
2022-09-23T02:57:38.845Z,9.09
2022-09-23T03:00:06.186Z,9.08
2022-09-23T03:02:43.725Z,8.98
2022-09-23T03:05:27.280Z,9.05
2022-09-23T03:08:19.707Z,9.12
2022-09-23T03:10:55.041Z,9.09
2022-09-23T03:13:30.497Z,9.08
2022-09-23T03:16:24.385Z,9.06
2022-09-23T03:18:59.735Z,8.85
2022-09-23T03:21:32.781Z,8.93
2022-09-23T03:24:01.758Z,8.96
2022-09-23T03:26:32.305Z,9.02
2022-09-23T03:29:02.731Z,8.91
2022-09-23T03:31:30.194Z,8.98
2022-09-23T03:34:00.445Z,8.91
2022-09-23T03:36:51.633Z,8.85
2022-09-23T03:39:28.188Z,8.75
2022-09-23T03:41:59.284Z,8.75
2022-09-23T03:44:29.303Z,8.76
2022-09-23T03:46:59.746Z,8.74
2022-09-23T03:49:29.894Z,8.78
2022-09-23T03:51:56.627Z,8.79
2022-09-23T03:54:23.200Z,8.76
2022-09-23T03:56:50.000Z,8.65
2022-09-23T03:59:17.210Z,8.75
2022-09-23T04:01:44.153Z,8.76
2022-09-23T04:04:10.892Z,8.76
2022-09-23T04:06:37.889Z,8.85
2022-09-23T04:09:04.533Z,8.89
2022-09-23T04:11:31.265Z,8.68
2022-09-23T04:13:58.296Z,8.71
2022-09-23T04:16:25.301Z,8.68
2022-09-23T04:18:52.133Z,8.69
2022-09-23T04:21:19.087Z,8.74
2022-09-23T04:23:46.671Z,8.65
2022-09-23T04:26:14.185Z,8.57
2022-09-23T04:28:40.850Z,8.57
2022-09-23T04:31:09.499Z,8.50
2022-09-23T04:33:36.258Z,8.62
2022-09-23T04:36:02.915Z,8.51
2022-09-23T04:38:29.540Z,8.48
2022-09-23T04:40:56.510Z,8.45
2022-09-23T04:43:23.531Z,8.33
2022-09-23T04:46:05.399Z,8.33
2022-09-23T04:48:32.402Z,8.38
2022-09-23T04:51:07.755Z,8.38
2022-09-23T04:53:35.914Z,8.34
2022-09-23T04:56:09.910Z,8.48
2022-09-23T04:58:36.941Z,8.45
2022-09-23T05:01:15.967Z,8.50
2022-09-23T05:03:43.801Z,8.43
2022-09-23T05:06:13.820Z,8.36
2022-09-23T05:08:42.139Z,8.29
2022-09-23T05:11:09.131Z,8.26
2022-09-23T05:13:35.703Z,8.20
2022-09-23T05:16:08.401Z,8.30
2022-09-23T05:18:36.165Z,8.24
2022-09-23T05:21:03.575Z,8.36
2022-09-23T05:23:30.820Z,8.26
2022-09-23T05:26:03.063Z,8.29
2022-09-23T05:28:32.976Z,8.26
2022-09-23T05:31:08.543Z,8.27
2022-09-23T05:33:37.025Z,8.47
2022-09-23T05:36:04.858Z,8.33
2022-09-23T05:38:32.044Z,8.24
2022-09-23T05:41:03.346Z,8.24
2022-09-23T05:43:30.676Z,8.30
2022-09-23T05:46:12.486Z,8.29
2022-09-23T05:48:40.771Z,8.43
2022-09-23T05:51:11.311Z,8.34
2022-09-23T05:53:38.754Z,8.40
2022-09-23T05:56:07.128Z,8.34
2022-09-23T05:58:33.924Z,8.50
2022-09-23T06:01:00.610Z,8.65
2022-09-23T06:03:27.419Z,8.62
2022-09-23T06:05:55.378Z,8.55
2022-09-23T06:08:23.640Z,8.62
2022-09-23T06:10:54.418Z,8.55
2022-09-23T06:13:21.474Z,8.69
2022-09-23T06:15:48.579Z,8.85
2022-09-23T06:18:15.269Z,8.93
2022-09-23T06:20:42.046Z,8.88
2022-09-23T06:23:11.279Z,9.05
2022-09-23T06:25:41.090Z,9.11
2022-09-23T06:28:11.605Z,9.26
2022-09-23T06:33:39.935Z,9.33
2022-09-23T06:36:07.701Z,9.47
2022-09-23T06:38:35.573Z,9.41
2022-09-23T06:41:03.544Z,9.48
2022-09-23T06:43:30.865Z,9.60
2022-09-23T06:45:59.736Z,9.61
2022-09-23T06:48:27.711Z,9.75
2022-09-23T06:50:54.500Z,9.85
2022-09-23T06:53:24.873Z,10.02
2022-09-23T06:56:02.569Z,10.15
2022-09-23T06:58:30.561Z,10.49
2022-09-23T07:01:04.136Z,10.95
2022-09-23T07:03:31.979Z,11.48
2022-09-23T07:05:59.092Z,11.86
2022-09-23T07:08:27.497Z,11.97
2022-09-23T07:10:55.380Z,12.21
2022-09-23T07:13:22.098Z,12.39
2022-09-23T07:15:52.819Z,12.66
2022-09-23T07:18:20.386Z,12.75
2022-09-23T07:20:47.005Z,12.95
2022-09-23T07:23:13.925Z,13.17
2022-09-23T07:25:42.436Z,13.69
2022-09-23T07:28:09.383Z,13.68
2022-09-23T07:30:39.309Z,13.91
2022-09-23T07:33:21.723Z,14.33
2022-09-23T07:35:54.339Z,14.50
2022-09-23T07:38:20.933Z,14.66
2022-09-23T07:40:47.682Z,14.61
2022-09-23T07:43:14.663Z,14.29
2022-09-23T07:45:43.629Z,14.04
2022-09-23T07:48:10.533Z,13.71
2022-09-23T07:50:39.526Z,14.01
2022-09-23T07:53:07.416Z,14.26
2022-09-23T07:55:35.056Z,14.20
2022-09-23T07:58:01.860Z,14.01
2022-09-23T08:00:28.506Z,14.13
2022-09-23T08:02:55.285Z,14.08
2022-09-23T08:05:22.747Z,14.44
2022-09-23T08:07:49.596Z,14.78
2022-09-23T08:10:19.226Z,14.88
2022-09-23T08:12:46.715Z,14.94
2022-09-23T08:15:13.364Z,14.84
2022-09-23T08:17:40.020Z,14.59
2022-09-23T08:20:07.314Z,14.75
2022-09-23T08:22:33.932Z,14.80
2022-09-23T08:25:00.606Z,14.63
2022-09-23T08:27:28.845Z,14.57
2022-09-23T08:29:55.662Z,14.67
2022-09-23T08:32:22.229Z,14.73
2022-09-23T08:34:50.325Z,14.75
2022-09-23T08:37:17.507Z,14.77
2022-09-23T08:39:44.768Z,14.94
2022-09-23T08:42:32.581Z,14.98
2022-09-23T08:45:03.359Z,15.19
2022-09-23T08:47:38.703Z,15.33
2022-09-23T08:50:19.020Z,15.71
2022-09-23T08:52:52.908Z,15.94
2022-09-23T08:55:23.698Z,16.07
2022-09-23T08:58:20.889Z,16.39
2022-09-23T09:00:44.903Z,16.31
2022-09-23T09:03:26.341Z,16.62
2022-09-23T09:05:54.925Z,16.53
2022-09-23T09:08:35.363Z,16.29
2022-09-23T09:11:03.394Z,16.24
2022-09-23T09:13:37.149Z,16.56
2022-09-23T09:16:36.355Z,16.43
2022-09-23T09:19:13.477Z,16.38
2022-09-23T09:21:42.680Z,16.55
2022-09-23T09:24:19.787Z,16.79
2022-09-23T09:26:46.548Z,16.75
2022-09-23T09:29:36.788Z,16.76
2022-09-23T09:32:39.159Z,16.76
2022-09-23T09:35:15.754Z,17.07
2022-09-23T09:37:47.949Z,17.28
2022-09-23T09:40:20.396Z,18.16
2022-09-23T09:42:49.938Z,17.87
2022-09-23T09:45:29.010Z,17.92
2022-09-23T09:48:38.120Z,17.73
2022-09-23T09:51:21.775Z,17.55
2022-09-23T09:53:52.149Z,17.71
2022-09-23T09:56:26.915Z,17.61
2022-09-23T09:58:59.070Z,17.28
2022-09-23T10:01:25.765Z,17.95
2022-09-23T10:03:58.436Z,17.95
2022-09-23T10:06:27.241Z,18.33
2022-09-23T10:09:08.791Z,18.21
2022-09-23T10:11:35.733Z,18.71
2022-09-23T10:14:10.572Z,18.92
2022-09-23T10:16:37.596Z,19.02
2022-09-23T10:19:30.296Z,18.98
2022-09-23T10:22:16.185Z,19.32
2022-09-23T10:24:48.983Z,19.03
2022-09-23T10:27:17.033Z,19.19
2022-09-23T10:29:46.655Z,19.15
2022-09-23T10:32:18.754Z,19.09
2022-09-23T10:34:47.078Z,19.12
2022-09-23T10:37:34.649Z,19.05
2022-09-23T10:40:51.672Z,19.53
2022-09-23T10:43:57.890Z,19.08
2022-09-23T10:46:38.722Z,19.46
2022-09-23T10:49:21.541Z,19.73
2022-09-23T10:52:25.413Z,19.26
2022-09-23T10:55:10.603Z,20.09
2022-09-23T10:57:46.030Z,20.12
2022-09-23T11:00:52.422Z,20.49
2022-09-23T11:03:40.242Z,21.04
2022-09-23T11:06:34.679Z,21.59
2022-09-23T11:09:04.332Z,21.39
2022-09-23T11:11:52.976Z,21.48
2022-09-23T11:14:32.953Z,21.34
2022-09-23T11:17:26.048Z,21.92
2022-09-23T11:20:16.162Z,21.90
2022-09-23T11:23:07.898Z,22.24
2022-09-23T11:25:53.768Z,21.17
2022-09-23T11:29:04.118Z,20.72
2022-09-23T11:31:33.904Z,21.01
2022-09-23T11:34:26.823Z,20.96
2022-09-23T11:36:59.311Z,20.53
2022-09-23T11:39:37.604Z,20.39
2022-09-23T11:42:09.644Z,20.53
2022-09-23T11:44:43.142Z,20.36
2022-09-23T11:47:16.653Z,20.08
2022-09-23T11:49:58.648Z,19.87
2022-09-23T11:52:31.862Z,19.75
2022-09-23T11:55:22.366Z,19.91
2022-09-23T11:57:57.801Z,19.70
2022-09-23T12:00:30.466Z,19.85
2022-09-23T12:03:10.724Z,19.67
2022-09-23T12:05:47.544Z,19.64
2022-09-23T12:08:33.406Z,19.75
2022-09-23T12:11:26.597Z,20.30
2022-09-23T12:14:21.638Z,20.55
2022-09-23T12:17:24.007Z,20.46
2022-09-23T12:19:56.308Z,20.50
2022-09-23T12:22:43.132Z,20.07
2022-09-23T12:25:24.736Z,20.60
2022-09-23T12:27:56.588Z,20.69
2022-09-23T12:30:27.489Z,21.03
2022-09-23T12:33:08.163Z,21.18
2022-09-23T12:35:46.422Z,21.06
2022-09-23T12:38:34.229Z,21.03
2022-09-23T12:41:01.307Z,20.88
2022-09-23T12:43:31.113Z,20.81
2022-09-23T12:46:17.766Z,20.67
2022-09-23T12:49:05.038Z,20.32
2022-09-23T12:51:35.509Z,20.62
2022-09-23T12:54:05.177Z,20.52
2022-09-23T12:56:34.586Z,20.45
2022-09-23T12:59:16.416Z,20.66
2022-09-23T13:01:44.247Z,20.59
2022-09-23T13:04:49.894Z,20.14
2022-09-23T13:07:26.493Z,21.00
2022-09-23T13:10:00.321Z,20.83
2022-09-23T13:12:34.867Z,21.08
2022-09-23T13:15:06.377Z,21.11
2022-09-23T13:17:37.934Z,20.97
2022-09-23T13:20:26.411Z,21.54
2022-09-23T13:22:53.175Z,21.23
2022-09-23T13:25:21.870Z,21.18
2022-09-23T13:27:53.054Z,20.94
2022-09-23T13:30:26.150Z,20.38
2022-09-23T13:33:06.220Z,20.19
2022-09-23T13:35:37.492Z,20.17
2022-09-23T13:38:17.213Z,20.11
2022-09-23T13:40:45.294Z,20.05
2022-09-23T13:43:24.529Z,19.91
2022-09-23T13:45:51.706Z,19.90
2022-09-23T13:48:20.476Z,19.80
2022-09-23T13:50:52.130Z,19.75
2022-09-23T13:53:30.160Z,19.81
2022-09-23T13:56:07.589Z,19.70
2022-09-23T13:58:34.784Z,19.73
2022-09-23T14:01:01.738Z,19.59
2022-09-23T14:03:36.896Z,19.63
2022-09-23T14:06:14.669Z,19.57
2022-09-23T14:08:43.878Z,19.38
2022-09-23T14:11:18.900Z,19.54
2022-09-23T14:13:47.239Z,19.54
2022-09-23T14:16:16.110Z,19.50
2022-09-23T14:18:48.394Z,19.67
2022-09-23T14:24:36.158Z,19.60
2022-09-23T14:27:15.686Z,19.59
2022-09-23T14:29:47.806Z,19.49
2022-09-23T14:32:21.564Z,19.36
2022-09-23T14:35:00.234Z,19.36
2022-09-23T14:37:53.267Z,19.49
2022-09-23T14:40:22.986Z,19.61
2022-09-23T14:42:52.502Z,19.43
2022-09-23T14:45:28.545Z,19.33
2022-09-23T14:48:01.263Z,19.26
2022-09-23T14:50:39.459Z,19.19
2022-09-23T14:53:41.325Z,19.26
2022-09-23T14:56:07.848Z,19.24
2022-09-23T14:58:51.026Z,19.19
2022-09-23T15:01:31.544Z,19.19
2022-09-23T15:04:19.221Z,19.08
2022-09-23T15:06:58.331Z,19.09
2022-09-23T15:09:32.517Z,19.01
2022-09-23T15:12:07.039Z,19.01
2022-09-23T15:14:41.264Z,18.88
2022-09-23T15:17:27.770Z,18.91
2022-09-23T15:19:57.678Z,18.89
2022-09-23T15:22:25.176Z,18.91
2022-09-23T15:24:53.623Z,18.94
2022-09-23T15:27:33.228Z,18.88
2022-09-23T15:30:31.573Z,18.88
2022-09-23T15:32:58.679Z,18.88
2022-09-23T15:35:26.768Z,18.77
2022-09-23T15:37:58.226Z,18.81
2022-09-23T15:40:27.256Z,18.81
2022-09-23T15:43:04.892Z,18.81
2022-09-23T15:45:36.661Z,18.63
2022-09-23T15:48:29.155Z,18.61
2022-09-23T15:50:55.713Z,18.63
2022-09-23T15:53:26.517Z,18.65
2022-09-23T15:55:53.353Z,18.64
2022-09-23T15:58:21.530Z,18.52
2022-09-23T16:00:56.746Z,18.52
2022-09-23T16:03:28.635Z,18.40
2022-09-23T16:06:00.655Z,18.36
2022-09-23T16:08:28.352Z,18.33
2022-09-23T16:10:58.130Z,18.45
2022-09-23T16:13:24.890Z,18.37
2022-09-23T16:15:51.443Z,18.31
2022-09-23T16:18:18.123Z,18.23
2022-09-23T16:20:46.091Z,18.16
2022-09-23T16:23:34.645Z,18.20
2022-09-23T16:26:11.273Z,18.16
2022-09-23T16:28:37.876Z,18.20
2022-09-23T16:31:04.678Z,18.21
2022-09-23T16:33:31.275Z,18.20
2022-09-23T16:36:01.259Z,18.03
2022-09-23T16:38:29.037Z,17.79
2022-09-23T16:41:01.219Z,17.85
2022-09-23T16:43:39.596Z,17.87
2022-09-23T16:46:12.251Z,17.87
2022-09-23T16:48:40.675Z,17.91
2022-09-23T16:51:16.137Z,17.72
2022-09-23T16:53:42.874Z,17.66
2022-09-23T16:56:11.081Z,17.55
2022-09-23T16:58:39.374Z,17.57
2022-09-23T17:01:26.531Z,17.50
2022-09-23T17:03:53.359Z,17.37
2022-09-23T17:06:19.945Z,17.34
2022-09-23T17:08:48.374Z,17.38
2022-09-23T17:11:16.459Z,17.28
2022-09-23T17:13:44.384Z,17.20
2022-09-23T17:16:22.184Z,17.11
2022-09-23T17:18:48.708Z,17.03
2022-09-23T17:21:15.238Z,17.08
2022-09-23T17:23:41.805Z,17.17
2022-09-23T17:26:12.642Z,17.03
2022-09-23T17:28:39.755Z,16.87
2022-09-23T17:31:07.155Z,16.65
2022-09-23T17:33:38.035Z,16.45
2022-09-23T17:36:09.527Z,16.49
2022-09-23T17:38:36.579Z,16.35
2022-09-23T17:41:04.289Z,16.48
2022-09-23T17:43:31.719Z,16.45
2022-09-23T17:46:06.406Z,16.46
2022-09-23T17:48:35.395Z,16.43
2022-09-23T17:51:05.724Z,16.36
2022-09-23T17:53:35.049Z,16.25
2022-09-23T17:56:07.200Z,16.26
2022-09-23T17:58:35.937Z,16.21
2022-09-23T18:01:02.891Z,16.07
2022-09-23T18:03:31.029Z,16.07
2022-09-23T18:06:09.101Z,16.03
2022-09-23T18:08:35.777Z,15.98
2022-09-23T18:11:14.654Z,15.97
2022-09-23T18:13:41.407Z,15.91
2022-09-23T18:16:08.174Z,15.96
2022-09-23T18:18:34.712Z,15.93
2022-09-23T18:21:02.803Z,15.87
2022-09-23T18:23:29.540Z,15.78
2022-09-23T18:25:56.752Z,15.73
2022-09-23T18:28:23.291Z,15.70
2022-09-23T18:30:57.635Z,15.89
2022-09-23T18:33:29.138Z,15.80
2022-09-23T18:35:55.709Z,15.83
2022-09-23T18:38:22.242Z,15.77
2022-09-23T18:40:57.102Z,15.74
2022-09-23T18:43:25.951Z,15.71
2022-09-23T18:45:59.687Z,15.67
2022-09-23T18:48:45.395Z,15.60
2022-09-23T18:51:20.075Z,15.49
2022-09-23T18:53:48.472Z,15.49
2022-09-23T18:56:17.800Z,15.57
2022-09-23T18:58:52.097Z,15.50
2022-09-23T19:01:20.215Z,15.33
2022-09-23T19:03:46.819Z,15.29
2022-09-23T19:06:20.531Z,15.26
2022-09-23T19:08:50.403Z,15.16
2022-09-23T19:11:17.183Z,15.05
2022-09-23T19:13:43.889Z,15.04
2022-09-23T19:16:13.397Z,14.94
2022-09-23T19:18:41.335Z,14.99
2022-09-23T19:21:09.408Z,14.87
2022-09-23T19:23:36.225Z,14.91
2022-09-23T19:26:05.307Z,14.88
2022-09-23T19:28:31.827Z,14.81
2022-09-23T19:30:58.766Z,14.88
2022-09-23T19:33:25.259Z,14.91
2022-09-23T19:35:53.512Z,14.85
2022-09-23T19:38:21.445Z,14.87
2022-09-23T19:40:50.026Z,14.80
2022-09-23T19:43:26.275Z,14.80
2022-09-23T19:45:54.221Z,14.66
2022-09-23T19:48:20.903Z,14.70
2022-09-23T19:50:48.204Z,14.68
2022-09-23T19:53:15.365Z,14.54
2022-09-23T19:55:43.713Z,14.54
2022-09-23T19:58:10.402Z,14.68
2022-09-23T20:00:36.936Z,14.63
2022-09-23T20:03:03.768Z,14.63
2022-09-23T20:05:30.268Z,14.46
2022-09-23T20:07:58.935Z,14.44
2022-09-23T20:10:26.282Z,14.49
2022-09-23T20:12:53.139Z,14.47
2022-09-23T20:15:21.678Z,14.44
2022-09-23T20:17:48.198Z,14.46
2022-09-23T20:20:15.836Z,14.30
2022-09-23T20:22:42.368Z,14.41
2022-09-23T20:25:13.516Z,14.29
2022-09-23T20:27:42.776Z,14.16
2022-09-23T20:30:10.658Z,14.16
2022-09-23T20:32:38.334Z,13.99
2022-09-23T20:35:06.783Z,14.09
2022-09-23T20:37:33.396Z,13.98
2022-09-23T20:40:00.830Z,13.95
2022-09-23T20:42:27.316Z,13.92
2022-09-23T20:44:54.897Z,13.92
2022-09-23T20:47:24.316Z,13.86
2022-09-23T20:49:51.439Z,13.91
2022-09-23T20:52:20.257Z,13.82
2022-09-23T20:54:46.790Z,13.78
2022-09-23T20:57:15.125Z,13.77
2022-09-23T20:59:41.777Z,13.92
2022-09-23T21:02:09.742Z,13.82
2022-09-23T21:04:36.348Z,13.99
2022-09-23T21:07:02.914Z,13.84
2022-09-23T21:09:32.211Z,13.88
2022-09-23T21:11:59.031Z,14.05
2022-09-23T21:14:25.921Z,14.10
2022-09-23T21:16:53.193Z,13.89
2022-09-23T21:19:19.975Z,13.81
2022-09-23T21:21:46.491Z,13.85
2022-09-23T21:24:42.198Z,13.86
2022-09-23T21:26:59.932Z,13.84
2022-09-23T21:29:26.381Z,13.79
2022-09-23T21:31:52.909Z,13.81
2022-09-23T21:34:21.009Z,13.68
2022-09-23T21:36:50.280Z,13.64
2022-09-23T21:39:16.752Z,13.65
2022-09-23T21:41:43.218Z,13.65
2022-09-23T21:44:09.835Z,13.81
2022-09-23T21:46:36.886Z,13.79
2022-09-23T21:49:04.531Z,13.79
2022-09-23T21:51:41.039Z,13.72
2022-09-23T21:54:12.266Z,13.79
2022-09-23T21:56:39.034Z,13.72
2022-09-23T21:59:07.721Z,13.69
2022-09-23T22:01:41.912Z,13.64
2022-09-23T22:04:15.331Z,13.71
2022-09-23T22:06:47.480Z,13.62
2022-09-23T22:09:17.482Z,13.69
2022-09-23T22:12:02.938Z,13.68
2022-09-23T22:14:30.711Z,13.67
2022-09-23T22:17:02.776Z,13.64
2022-09-23T22:19:45.591Z,13.61
2022-09-23T22:22:15.022Z,13.68
2022-09-23T22:24:42.728Z,13.58
2022-09-23T22:27:11.129Z,13.40
2022-09-23T22:29:56.596Z,13.47
2022-09-23T22:32:41.674Z,13.51
2022-09-23T22:35:11.051Z,13.58
2022-09-23T22:37:38.022Z,13.61
2022-09-23T22:40:06.837Z,13.59
2022-09-23T22:42:33.419Z,13.55
2022-09-23T22:45:00.066Z,13.57
2022-09-23T22:47:27.115Z,13.48
2022-09-23T22:49:55.395Z,13.50
2022-09-23T22:52:24.482Z,13.48
2022-09-23T22:54:52.039Z,13.41
2022-09-23T22:57:19.464Z,13.38
2022-09-23T22:59:48.026Z,13.36
2022-09-23T23:02:16.316Z,13.34
2022-09-23T23:04:45.593Z,13.34
2022-09-23T23:07:20.399Z,13.38
2022-09-23T23:09:51.020Z,13.36
2022-09-23T23:12:20.146Z,13.38
2022-09-23T23:14:47.571Z,13.23
2022-09-23T23:17:14.134Z,13.17
2022-09-23T23:19:40.652Z,13.17
2022-09-23T23:22:07.087Z,13.12
2022-09-23T23:24:33.548Z,13.22
2022-09-23T23:27:00.045Z,13.27
2022-09-23T23:29:27.800Z,13.26
2022-09-23T23:31:54.382Z,13.30
2022-09-23T23:34:21.363Z,13.30
2022-09-23T23:36:54.518Z,13.36
2022-09-23T23:39:23.592Z,13.38
2022-09-23T23:41:54.976Z,13.37
2022-09-23T23:44:23.329Z,13.40
2022-09-23T23:46:49.962Z,13.36
2022-09-23T23:49:16.570Z,13.24
2022-09-23T23:51:43.314Z,13.26
2022-09-23T23:54:11.368Z,13.26
2022-09-23T23:56:37.836Z,13.20
2022-09-23T23:59:04.399Z,13.20
